createdAt,value
2024-04-09T00:01:44.670Z,3.55
2024-04-09T00:04:12.233Z,3.33
2024-04-09T00:06:39.647Z,2.80
2024-04-09T00:09:07.497Z,3.65
2024-04-09T00:11:36.945Z,3.10
2024-04-09T00:14:05.962Z,4.00
2024-04-09T00:16:35.131Z,2.65
2024-04-09T00:19:02.968Z,2.47
2024-04-09T00:21:31.303Z,2.70
2024-04-09T00:23:59.851Z,3.58
2024-04-09T00:26:29.735Z,4.57
2024-04-09T00:28:57.275Z,3.38
2024-04-09T00:31:26.082Z,3.03
2024-04-09T00:33:53.826Z,3.45
2024-04-09T00:36:21.547Z,3.03
2024-04-09T00:38:50.179Z,2.70
2024-04-09T00:41:18.208Z,2.40
2024-04-09T00:43:46.895Z,3.70
2024-04-09T00:46:14.921Z,3.03
2024-04-09T00:48:43.334Z,3.55
2024-04-09T00:51:11.617Z,2.72
2024-04-09T00:53:38.971Z,3.80
2024-04-09T00:56:07.267Z,3.22
2024-04-09T00:58:36.365Z,2.75
2024-04-09T01:01:05.568Z,3.58
2024-04-09T01:03:33.755Z,3.53
2024-04-09T01:06:01.935Z,3.03
2024-04-09T01:08:29.372Z,2.83
2024-04-09T01:10:56.770Z,2.58
2024-04-09T01:13:24.142Z,3.20
2024-04-09T01:15:51.491Z,2.80
2024-04-09T01:18:19.519Z,3.15
2024-04-09T01:20:47.042Z,3.75
2024-04-09T01:23:14.455Z,2.97
2024-04-09T01:25:42.292Z,2.90
2024-04-09T01:28:09.930Z,2.92
2024-04-09T01:30:39.186Z,3.33
2024-04-09T01:33:06.820Z,2.90
2024-04-09T01:35:34.384Z,2.78
2024-04-09T01:38:01.873Z,3.35
2024-04-09T01:40:29.539Z,3.35
2024-04-09T01:42:56.879Z,3.20
2024-04-09T01:45:24.396Z,2.33
2024-04-09T01:47:52.406Z,2.95
2024-04-09T01:50:21.609Z,4.57
2024-04-09T01:52:49.586Z,3.97
2024-04-09T01:55:20.315Z,3.55
2024-04-09T01:57:48.215Z,2.60
2024-04-09T02:00:21.630Z,3.35
2024-04-09T02:02:51.266Z,2.90
2024-04-09T02:05:21.163Z,3.17
2024-04-09T02:07:49.069Z,2.92
2024-04-09T02:10:16.523Z,2.75
2024-04-09T02:12:44.408Z,2.95
2024-04-09T02:15:14.370Z,3.17
2024-04-09T02:17:42.280Z,2.78
2024-04-09T02:20:11.569Z,3.78
2024-04-09T02:22:39.513Z,3.15
2024-04-09T02:25:07.063Z,3.03
2024-04-09T02:27:34.740Z,2.55
2024-04-09T02:30:04.720Z,3.75
2024-04-09T02:32:33.175Z,2.95
2024-04-09T02:35:02.586Z,2.75
2024-04-09T02:37:30.031Z,3.22
2024-04-09T02:39:57.731Z,3.58
2024-04-09T02:42:26.120Z,3.15
2024-04-09T02:44:53.868Z,3.28
2024-04-09T02:47:21.393Z,3.13
2024-04-09T02:49:48.925Z,3.13
2024-04-09T02:52:16.475Z,2.63
2024-04-09T02:54:43.964Z,3.60
2024-04-09T02:57:12.088Z,3.08
2024-04-09T02:59:40.557Z,3.53
2024-04-09T03:02:08.317Z,3.28
2024-04-09T03:04:36.053Z,3.80
2024-04-09T03:07:05.048Z,4.22
2024-04-09T03:09:33.439Z,3.17
2024-04-09T03:12:02.513Z,3.53
2024-04-09T03:14:30.556Z,3.80
2024-04-09T03:16:58.063Z,3.38
2024-04-09T03:19:25.483Z,3.17
2024-04-09T03:21:52.842Z,3.55
2024-04-09T03:24:20.291Z,3.83
2024-04-09T03:26:47.675Z,3.05
2024-04-09T03:29:15.037Z,3.67
2024-04-09T03:31:42.375Z,2.65
2024-04-09T03:34:09.952Z,3.10
2024-04-09T03:36:37.393Z,3.45
2024-04-09T03:39:05.788Z,3.20
2024-04-09T03:41:33.268Z,3.95
2024-04-09T03:44:03.632Z,3.92
2024-04-09T03:46:30.974Z,3.67
2024-04-09T03:48:58.630Z,3.78
2024-04-09T03:51:26.218Z,3.50
2024-04-09T03:53:53.665Z,3.53
2024-04-09T03:56:21.047Z,3.58
2024-04-09T03:58:51.234Z,4.05
2024-04-09T04:01:19.127Z,3.75
2024-04-09T04:03:47.605Z,3.55
2024-04-09T04:06:16.255Z,3.95
2024-04-09T04:08:44.898Z,3.20
2024-04-09T04:11:13.364Z,3.75
2024-04-09T04:13:41.238Z,3.53
2024-04-09T04:16:13.891Z,3.90
2024-04-09T04:18:42.618Z,3.25
2024-04-09T04:21:12.248Z,3.88
2024-04-09T04:23:40.702Z,3.60
2024-04-09T04:26:15.269Z,3.75
2024-04-09T04:28:43.703Z,3.53
2024-04-09T04:31:18.725Z,4.18
2024-04-09T04:33:46.810Z,3.85
2024-04-09T04:36:16.761Z,3.95
2024-04-09T04:38:45.043Z,4.00
2024-04-09T04:41:12.539Z,5.28
2024-04-09T04:43:40.829Z,4.43
2024-04-09T04:46:08.848Z,4.00
2024-04-09T04:48:37.898Z,3.08
2024-04-09T04:51:05.894Z,3.25
2024-04-09T04:53:33.306Z,3.63
2024-04-09T04:56:00.945Z,3.78
2024-04-09T04:58:28.622Z,4.47
2024-04-09T05:00:56.588Z,3.70
2024-04-09T05:03:24.341Z,3.95
2024-04-09T05:05:51.830Z,3.85
2024-04-09T05:08:20.110Z,3.78
2024-04-09T05:10:47.559Z,3.47
2024-04-09T05:13:14.920Z,4.43
2024-04-09T05:15:42.304Z,4.15
2024-04-09T05:18:11.355Z,4.18
2024-04-09T05:20:41.016Z,3.90
2024-04-09T05:23:08.943Z,4.03
2024-04-09T05:25:36.761Z,3.85
2024-04-09T05:28:04.445Z,3.90
2024-04-09T05:30:32.109Z,3.50
2024-04-09T05:32:59.882Z,4.85
2024-04-09T05:35:27.851Z,3.70
2024-04-09T05:37:55.657Z,4.32
2024-04-09T05:40:23.156Z,4.38
2024-04-09T05:42:50.809Z,4.30
2024-04-09T05:45:20.633Z,3.92
2024-04-09T05:47:48.517Z,4.72
2024-04-09T05:50:16.051Z,4.65
2024-04-09T05:52:43.457Z,4.00
2024-04-09T05:55:13.150Z,4.00
2024-04-09T05:57:41.664Z,4.55
2024-04-09T06:00:10.729Z,4.68
2024-04-09T06:02:38.253Z,4.25
2024-04-09T06:05:06.069Z,4.72
2024-04-09T06:07:33.496Z,4.10
2024-04-09T06:10:01.119Z,3.90
2024-04-09T06:12:28.589Z,5.07
2024-04-09T06:14:55.980Z,3.80
2024-04-09T06:17:23.532Z,4.25
2024-04-09T06:19:52.115Z,3.70
2024-04-09T06:22:19.590Z,4.28
2024-04-09T06:24:51.959Z,5.07
2024-04-09T06:27:19.321Z,4.30
2024-04-09T06:29:47.146Z,3.63
2024-04-09T06:32:14.620Z,4.15
2024-04-09T06:34:43.595Z,3.53
2024-04-09T06:37:11.338Z,3.58
2024-04-09T06:39:39.312Z,4.43
2024-04-09T06:42:06.933Z,3.83
2024-04-09T06:44:34.455Z,5.03
2024-04-09T06:47:03.125Z,4.07
2024-04-09T06:49:30.889Z,4.07
2024-04-09T06:51:59.033Z,4.20
2024-04-09T06:54:26.446Z,4.32
2024-04-09T06:56:54.021Z,3.60
2024-04-09T06:59:21.622Z,4.05
2024-04-09T07:01:50.289Z,4.80
2024-04-09T07:04:18.138Z,4.15
2024-04-09T07:06:45.905Z,4.35
2024-04-09T07:09:18.549Z,5.38
2024-04-09T07:11:47.281Z,4.60
2024-04-09T07:14:15.326Z,4.07
2024-04-09T07:16:44.417Z,3.85
2024-04-09T07:19:11.971Z,4.20
2024-04-09T07:21:39.967Z,4.00
2024-04-09T07:24:08.524Z,4.35
2024-04-09T07:26:36.064Z,4.60
2024-04-09T07:29:03.749Z,4.10
2024-04-09T07:31:31.225Z,4.20
2024-04-09T07:33:58.991Z,4.50
2024-04-09T07:36:26.530Z,4.70
2024-04-09T07:38:54.234Z,4.63
2024-04-09T07:41:24.983Z,4.28
2024-04-09T07:43:52.622Z,4.63
2024-04-09T07:46:23.232Z,4.25
2024-04-09T07:48:50.869Z,4.25
2024-04-09T07:51:18.519Z,4.60
2024-04-09T07:53:45.843Z,4.03
2024-04-09T07:56:16.036Z,4.45
2024-04-09T07:58:44.021Z,4.18
2024-04-09T08:01:11.774Z,4.28
2024-04-09T08:03:39.547Z,3.80
2024-04-09T08:06:08.200Z,3.50
2024-04-09T08:08:39.287Z,3.53
2024-04-09T08:11:09.204Z,4.10
2024-04-09T08:13:36.627Z,3.78
2024-04-09T08:16:04.143Z,3.55
2024-04-09T08:18:31.827Z,3.42
2024-04-09T08:20:59.705Z,4.13
2024-04-09T08:23:27.129Z,3.72
2024-04-09T08:25:54.527Z,4.20
2024-04-09T08:28:22.254Z,3.83
2024-04-09T08:30:51.616Z,4.00
2024-04-09T08:33:19.299Z,3.35
2024-04-09T08:35:47.591Z,3.53
2024-04-09T08:38:14.975Z,4.38
2024-04-09T08:40:42.663Z,4.22
2024-04-09T08:43:10.747Z,4.22
2024-04-09T08:45:38.653Z,3.92
2024-04-09T08:48:08.345Z,3.15
2024-04-09T08:50:36.579Z,3.75
2024-04-09T08:53:05.234Z,3.72
2024-04-09T08:55:32.817Z,3.85
2024-04-09T08:58:00.653Z,3.40
2024-04-09T09:00:28.092Z,4.00
2024-04-09T09:02:56.150Z,4.80
2024-04-09T09:05:26.303Z,3.95
2024-04-09T09:08:04.261Z,3.20
2024-04-09T09:10:34.839Z,3.90
2024-04-09T09:13:03.600Z,3.55
2024-04-09T09:15:31.675Z,4.20
2024-04-09T09:17:59.264Z,4.18
2024-04-09T09:20:27.022Z,3.75
2024-04-09T09:22:55.828Z,3.83
2024-04-09T09:25:28.436Z,4.00
2024-04-09T09:28:08.516Z,3.15
2024-04-09T09:30:43.774Z,4.25
2024-04-09T09:33:15.977Z,4.10
2024-04-09T09:35:48.042Z,5.22
2024-04-09T09:38:15.769Z,4.70
2024-04-09T09:40:46.033Z,4.18
2024-04-09T09:43:14.509Z,4.57
2024-04-09T09:45:42.217Z,3.70
2024-04-09T09:48:13.542Z,4.22
2024-04-09T09:50:44.204Z,4.55
2024-04-09T09:53:11.998Z,3.80
2024-04-09T09:55:39.731Z,3.42
2024-04-09T09:58:10.139Z,3.60
2024-04-09T10:00:38.742Z,3.78
2024-04-09T10:03:07.289Z,4.18
2024-04-09T10:05:38.175Z,3.90
2024-04-09T10:08:15.606Z,3.75
2024-04-09T10:10:44.097Z,3.42
2024-04-09T10:13:12.721Z,3.90
2024-04-09T10:15:46.313Z,3.42
2024-04-09T10:18:28.370Z,4.15
2024-04-09T10:20:55.946Z,3.42
2024-04-09T10:23:24.491Z,3.95
2024-04-09T10:25:52.190Z,3.35
2024-04-09T10:28:34.246Z,3.45
2024-04-09T10:31:03.881Z,4.47
2024-04-09T10:33:42.012Z,3.85
2024-04-09T10:36:13.004Z,4.00
2024-04-09T10:38:43.754Z,4.10
2024-04-09T10:41:13.342Z,3.63
2024-04-09T10:43:41.373Z,3.95
2024-04-09T10:46:14.192Z,4.38
2024-04-09T10:48:44.126Z,4.43
2024-04-09T10:51:12.384Z,3.90
2024-04-09T10:53:40.145Z,5.30
2024-04-09T10:56:08.864Z,5.25
2024-04-09T10:58:39.359Z,3.97
2024-04-09T11:01:09.121Z,4.13
2024-04-09T11:03:36.836Z,4.10
2024-04-09T11:06:04.584Z,3.92
2024-04-09T11:08:35.588Z,3.17
2024-04-09T11:11:04.478Z,4.07
2024-04-09T11:13:33.192Z,4.72
2024-04-09T11:16:05.415Z,4.25
2024-04-09T11:18:32.944Z,4.78
2024-04-09T11:21:05.021Z,3.75
2024-04-09T11:23:33.286Z,4.75
2024-04-09T11:26:03.058Z,4.88
2024-04-09T11:28:32.271Z,4.13
2024-04-09T11:31:01.563Z,4.28
2024-04-09T11:33:30.040Z,5.10
2024-04-09T11:36:07.451Z,3.53
2024-04-09T11:38:38.326Z,4.30
2024-04-09T11:41:05.963Z,4.35
2024-04-09T11:43:33.314Z,4.63
2024-04-09T11:46:01.459Z,4.25
2024-04-09T11:48:29.047Z,4.38
2024-04-09T11:50:56.590Z,4.75
2024-04-09T11:53:24.653Z,4.40
2024-04-09T11:55:54.783Z,3.65
2024-04-09T11:58:22.477Z,4.30
2024-04-09T12:00:49.990Z,4.63
2024-04-09T12:03:17.647Z,4.25
2024-04-09T12:05:45.236Z,5.00
2024-04-09T12:08:12.652Z,4.82
2024-04-09T12:10:40.125Z,4.45
2024-04-09T12:13:07.546Z,4.30
2024-04-09T12:15:35.002Z,4.18
2024-04-09T12:18:02.625Z,4.93
2024-04-09T12:20:30.206Z,4.85
2024-04-09T12:22:57.704Z,5.43
2024-04-09T12:25:25.137Z,4.65
2024-04-09T12:27:52.533Z,4.45
2024-04-09T12:30:20.449Z,5.15
2024-04-09T12:32:48.226Z,3.30
2024-04-09T12:35:17.252Z,2.95
2024-04-09T12:37:46.293Z,2.55
2024-04-09T12:40:13.835Z,2.95
2024-04-09T12:42:42.453Z,2.33
2024-04-09T12:45:09.971Z,1.85
2024-04-09T12:47:37.991Z,3.22
2024-04-09T12:50:06.215Z,2.05
2024-04-09T12:52:35.441Z,2.10
2024-04-09T12:55:04.319Z,2.20
2024-04-09T12:57:32.732Z,1.63
2024-04-09T13:00:14.181Z,2.67
2024-04-09T13:02:47.969Z,1.35
2024-04-09T13:05:18.262Z,1.30
2024-04-09T13:07:46.092Z,1.10
2024-04-09T13:10:16.021Z,1.45
2024-04-09T13:12:43.524Z,1.30
2024-04-09T13:17:41.830Z,1.30
2024-04-09T13:20:09.790Z,1.13
2024-04-09T13:22:37.517Z,0.73
2024-04-09T13:25:04.981Z,1.33
2024-04-09T13:27:32.374Z,0.82
2024-04-09T13:30:00.769Z,1.00
2024-04-09T13:32:28.655Z,1.27
2024-04-09T13:34:56.811Z,1.10
2024-04-09T13:37:24.222Z,1.05
2024-04-09T13:39:52.853Z,1.10
2024-04-09T13:42:20.382Z,1.30
2024-04-09T13:44:47.796Z,1.40
2024-04-09T13:47:15.310Z,1.42
2024-04-09T13:49:43.609Z,0.93
2024-04-09T13:52:11.133Z,0.90
2024-04-09T13:54:38.533Z,1.13
2024-04-09T13:57:05.974Z,0.88
2024-04-09T13:59:33.410Z,1.00
2024-04-09T14:02:00.835Z,0.75
2024-04-09T14:04:28.328Z,0.70
2024-04-09T14:06:55.856Z,1.00
2024-04-09T14:09:23.261Z,0.77
2024-04-09T14:11:50.828Z,0.90
2024-04-09T14:14:18.410Z,0.60
2024-04-09T14:16:46.502Z,0.70
2024-04-09T14:19:14.686Z,0.80
2024-04-09T14:21:43.802Z,0.50
2024-04-09T14:24:12.048Z,0.70
2024-04-09T14:26:42.249Z,0.50
2024-04-09T14:29:12.829Z,0.68
2024-04-09T14:31:41.527Z,0.98
2024-04-09T14:34:09.263Z,0.88
2024-04-09T14:36:36.649Z,0.70
2024-04-09T14:39:04.570Z,0.85
2024-04-09T14:41:32.397Z,1.33
2024-04-09T14:44:01.247Z,0.68
2024-04-09T14:46:30.519Z,0.50
2024-04-09T14:48:58.321Z,0.70
2024-04-09T14:51:25.835Z,0.75
2024-04-09T14:53:53.606Z,0.70
2024-04-09T14:56:21.064Z,0.88
2024-04-09T14:58:48.898Z,0.70
2024-04-09T15:01:16.529Z,0.77
2024-04-09T15:03:44.439Z,0.70
2024-04-09T15:06:13.054Z,1.00
2024-04-09T15:08:40.566Z,0.80
2024-04-09T15:11:08.359Z,0.50
2024-04-09T15:13:35.869Z,0.68
2024-04-09T15:16:03.457Z,0.85
2024-04-09T15:18:30.942Z,0.63
2024-04-09T15:20:58.405Z,0.70
2024-04-09T15:23:26.331Z,0.80
2024-04-09T15:25:54.179Z,0.75
2024-04-09T15:28:21.831Z,1.00
2024-04-09T15:30:52.992Z,0.60
2024-04-09T15:33:26.914Z,0.60
2024-04-09T15:35:55.104Z,0.70
2024-04-09T15:38:23.291Z,0.70
2024-04-09T15:40:52.351Z,0.80
2024-04-09T15:43:19.767Z,0.77
2024-04-09T15:45:47.464Z,0.70
2024-04-09T15:48:15.429Z,0.65
2024-04-09T15:50:43.432Z,1.00
2024-04-09T15:53:11.866Z,0.65
2024-04-09T15:55:39.585Z,0.80
2024-04-09T15:58:06.953Z,0.77
2024-04-09T16:00:35.839Z,0.60
2024-04-09T16:03:04.593Z,0.90
2024-04-09T16:05:32.559Z,0.90
2024-04-09T16:08:00.699Z,0.70
2024-04-09T16:10:28.306Z,0.60
2024-04-09T16:12:56.933Z,0.75
2024-04-09T16:15:24.317Z,0.85
2024-04-09T16:17:52.550Z,0.85
2024-04-09T16:20:21.502Z,0.82
2024-04-09T16:22:48.979Z,0.57
2024-04-09T16:25:16.548Z,1.00
2024-04-09T16:27:43.951Z,0.73
2024-04-09T16:30:12.612Z,0.80
2024-04-09T16:32:41.746Z,0.70
2024-04-09T16:35:09.828Z,1.48
2024-04-09T16:37:38.156Z,0.50
2024-04-09T16:40:06.820Z,0.45
2024-04-09T16:42:34.532Z,0.85
2024-04-09T16:45:02.163Z,0.68
2024-04-09T16:47:29.935Z,0.90
2024-04-09T16:49:57.424Z,0.60
2024-04-09T16:52:24.803Z,0.65
2024-04-09T16:54:55.771Z,0.95
2024-04-09T16:57:32.955Z,0.80
2024-04-09T17:00:05.808Z,0.70
2024-04-09T17:02:33.261Z,0.80
2024-04-09T17:05:00.899Z,1.00
2024-04-09T17:07:28.580Z,0.88
2024-04-09T17:09:55.925Z,0.90
2024-04-09T17:12:23.445Z,0.70
2024-04-09T17:14:51.625Z,0.80
2024-04-09T17:17:19.251Z,0.60
2024-04-09T17:19:47.840Z,0.80
2024-04-09T17:22:15.271Z,0.82
2024-04-09T17:24:43.552Z,0.70
2024-04-09T17:27:11.191Z,0.82
2024-04-09T17:29:38.552Z,0.63
2024-04-09T17:32:05.955Z,0.80
2024-04-09T17:34:33.420Z,0.55
2024-04-09T17:37:00.835Z,0.75
2024-04-09T17:39:28.205Z,0.70
2024-04-09T17:41:55.746Z,0.60
2024-04-09T17:44:23.484Z,1.10
2024-04-09T17:46:54.785Z,0.55
2024-04-09T17:49:22.446Z,0.80
2024-04-09T17:51:49.878Z,0.50
2024-04-09T17:54:17.248Z,0.50
2024-04-09T17:56:46.378Z,0.90
2024-04-09T17:59:14.877Z,0.55
2024-04-09T18:01:42.538Z,0.40
2024-04-09T18:04:10.189Z,0.30
2024-04-09T18:06:37.633Z,0.65
2024-04-09T18:09:06.103Z,0.70
2024-04-09T18:11:33.630Z,0.52
2024-04-09T18:14:01.917Z,0.50
2024-04-09T18:16:29.800Z,0.43
2024-04-09T18:18:58.363Z,0.80
2024-04-09T18:21:29.866Z,0.80
2024-04-09T18:23:58.705Z,0.60
2024-04-09T18:26:26.290Z,0.93
2024-04-09T18:28:54.027Z,0.80
2024-04-09T18:31:21.587Z,0.50
2024-04-09T18:33:49.079Z,0.70
2024-04-09T18:36:16.511Z,0.73
2024-04-09T18:38:44.041Z,0.93
2024-04-09T18:41:11.940Z,0.95
2024-04-09T18:43:39.383Z,1.10
2024-04-09T18:46:06.767Z,0.70
2024-04-09T18:48:34.404Z,1.10
2024-04-09T18:51:05.371Z,0.80
2024-04-09T18:53:36.585Z,0.63
2024-04-09T18:56:04.911Z,0.90
2024-04-09T18:58:32.588Z,0.70
2024-04-09T19:01:02.592Z,0.80
2024-04-09T19:03:30.869Z,0.60
2024-04-09T19:05:58.436Z,0.65
2024-04-09T19:08:28.478Z,0.68
2024-04-09T19:10:56.077Z,0.80
2024-04-09T19:13:23.545Z,0.40
2024-04-09T19:15:58.154Z,0.50
2024-04-09T19:18:25.738Z,0.50
2024-04-09T19:20:54.483Z,0.75
2024-04-09T19:23:24.564Z,0.40
2024-04-09T19:25:53.058Z,0.50
2024-04-09T19:28:20.524Z,0.30
2024-04-09T19:30:53.062Z,0.45
2024-04-09T19:33:20.798Z,0.65
2024-04-09T19:35:49.783Z,0.50
2024-04-09T19:38:20.789Z,0.47
2024-04-09T19:40:49.861Z,0.45
2024-04-09T19:43:30.108Z,0.60
2024-04-09T19:46:05.773Z,0.60
2024-04-09T19:48:33.409Z,0.63
2024-04-09T19:51:00.819Z,0.60
2024-04-09T19:53:35.676Z,0.50
2024-04-09T19:56:15.056Z,0.60
2024-04-09T19:58:43.590Z,0.55
2024-04-09T20:01:11.674Z,0.40
2024-04-09T20:03:39.265Z,0.73
2024-04-09T20:06:07.061Z,0.50
2024-04-09T20:08:35.568Z,0.45
2024-04-09T20:11:05.922Z,0.50
2024-04-09T20:13:38.108Z,0.50
2024-04-09T20:16:05.665Z,0.50
2024-04-09T20:18:34.967Z,1.08
2024-04-09T20:21:04.080Z,0.65
2024-04-09T20:23:32.788Z,0.90
2024-04-09T20:26:04.940Z,0.80
2024-04-09T20:28:36.243Z,0.43
2024-04-09T20:31:15.164Z,0.80
2024-04-09T20:33:45.567Z,0.68
2024-04-09T20:36:13.951Z,1.05
2024-04-09T20:38:41.545Z,0.63
2024-04-09T20:41:09.098Z,0.70
2024-04-09T20:43:36.781Z,0.70
2024-04-09T20:46:07.663Z,0.80
2024-04-09T20:48:35.436Z,0.77
2024-04-09T20:51:02.943Z,0.75
2024-04-09T20:53:30.326Z,0.70
2024-04-09T20:56:01.642Z,0.80
2024-04-09T20:58:29.690Z,0.77
2024-04-09T21:00:57.085Z,0.75
2024-04-09T21:03:24.595Z,0.60
2024-04-09T21:05:52.028Z,0.80
2024-04-09T21:08:19.446Z,0.70
2024-04-09T21:10:53.118Z,0.88
2024-04-09T21:13:20.542Z,0.80
2024-04-09T21:15:48.312Z,0.80
2024-04-09T21:18:18.003Z,0.60
2024-04-09T21:20:46.032Z,0.88
2024-04-09T21:23:13.547Z,0.68
2024-04-09T21:25:40.958Z,0.90
2024-04-09T21:28:08.489Z,0.50
2024-04-09T21:30:36.306Z,0.90
2024-04-09T21:33:05.708Z,0.70
2024-04-09T21:35:33.689Z,0.98
2024-04-09T21:38:01.314Z,0.80
2024-04-09T21:40:28.716Z,0.88
2024-04-09T21:42:56.083Z,0.93
2024-04-09T21:45:23.411Z,0.60
2024-04-09T21:47:50.920Z,0.88
2024-04-09T21:50:18.496Z,0.90
2024-04-09T21:52:45.955Z,0.90
2024-04-09T21:55:13.362Z,0.60
2024-04-09T21:57:41.261Z,0.70
2024-04-09T22:00:35.049Z,0.90
2024-04-09T22:03:02.622Z,0.88
2024-04-09T22:05:30.036Z,0.88
2024-04-09T22:07:57.481Z,0.60
2024-04-09T22:10:24.945Z,0.50
2024-04-09T22:12:58.455Z,0.70
2024-04-09T22:15:25.952Z,0.60
2024-04-09T22:17:53.497Z,0.70
2024-04-09T22:20:22.533Z,0.50
2024-04-09T22:22:50.443Z,0.80
2024-04-09T22:25:18.872Z,0.50
2024-04-09T22:27:48.069Z,0.60
2024-04-09T22:30:15.535Z,0.65
2024-04-09T22:32:44.702Z,1.08
2024-04-09T22:35:12.432Z,0.68
2024-04-09T22:37:39.762Z,0.60
2024-04-09T22:40:07.480Z,0.90
2024-04-09T22:42:35.841Z,0.70
2024-04-09T22:45:03.901Z,0.70
2024-04-09T22:47:31.715Z,0.80
2024-04-09T22:49:59.325Z,0.80
2024-04-09T22:52:27.962Z,0.70
2024-04-09T22:54:57.193Z,0.80
2024-04-09T22:57:24.571Z,0.57
2024-04-09T22:59:52.417Z,0.90
2024-04-09T23:02:19.899Z,0.70
2024-04-09T23:04:52.494Z,0.60
2024-04-09T23:07:20.802Z,0.70
2024-04-09T23:09:48.184Z,0.80
2024-04-09T23:12:15.786Z,0.70
2024-04-09T23:14:43.208Z,0.50
2024-04-09T23:17:13.631Z,0.60
2024-04-09T23:19:42.729Z,0.65
2024-04-09T23:22:10.060Z,0.70
2024-04-09T23:24:37.407Z,0.60
2024-04-09T23:27:07.147Z,0.60
2024-04-09T23:29:34.872Z,0.57
2024-04-09T23:32:02.319Z,0.60
2024-04-09T23:34:29.774Z,0.95
2024-04-09T23:36:57.146Z,0.55
2024-04-09T23:39:24.495Z,0.60
2024-04-09T23:42:03.874Z,0.63
2024-04-09T23:44:33.124Z,0.60
2024-04-09T23:47:01.648Z,0.45
2024-04-09T23:49:29.864Z,0.52
2024-04-09T23:51:57.272Z,0.45
2024-04-09T23:54:24.747Z,0.40
2024-04-09T23:56:52.904Z,0.43
2024-04-09T23:59:20.479Z,0.30
